createdAt,value
2019-04-07T00:01:14.578Z,32.37
2019-04-07T00:03:45.031Z,32.70
2019-04-07T00:06:15.675Z,33.63
2019-04-07T00:08:46.590Z,32.03
2019-04-07T00:11:17.912Z,32.87
2019-04-07T00:13:48.381Z,33.77
2019-04-07T00:16:18.771Z,32.47
2019-04-07T00:18:49.588Z,31.77
2019-04-07T00:21:20.791Z,33.17
2019-04-07T00:23:51.310Z,31.67
2019-04-07T00:26:21.905Z,30.63
2019-04-07T00:28:52.318Z,31.37
2019-04-07T00:31:22.857Z,32.13
2019-04-07T00:33:53.222Z,33.80
2019-04-07T00:36:23.630Z,33.57
2019-04-07T00:38:54.027Z,34.70
2019-04-07T00:41:24.839Z,32.80
2019-04-07T00:43:55.312Z,31.50
2019-04-07T00:46:26.846Z,32.07
2019-04-07T00:48:57.808Z,31.83
2019-04-07T00:51:28.616Z,30.53
2019-04-07T00:53:59.743Z,32.17
2019-04-07T00:56:31.308Z,30.90
2019-04-07T00:59:02.664Z,32.40
2019-04-07T01:01:33.112Z,29.93
2019-04-07T01:04:03.843Z,33.23
2019-04-07T01:06:34.762Z,32.87
2019-04-07T01:09:07.916Z,31.87
2019-04-07T01:11:38.496Z,33.93
2019-04-07T01:14:09.345Z,30.93
2019-04-07T01:16:40.728Z,32.80
2019-04-07T01:19:11.566Z,33.60
2019-04-07T01:21:41.934Z,32.03
2019-04-07T01:24:12.357Z,34.80
2019-04-07T01:26:42.998Z,34.33
2019-04-07T01:29:14.583Z,33.87
2019-04-07T01:31:45.163Z,33.53
2019-04-07T01:34:15.977Z,33.13
2019-04-07T01:36:46.412Z,29.90
2019-04-07T01:39:17.165Z,33.30
2019-04-07T01:42:06.587Z,32.57
2019-04-07T01:44:56.138Z,32.10
2019-04-07T01:47:37.001Z,32.47
2019-04-07T01:50:21.159Z,32.60
2019-04-07T01:53:00.143Z,31.67
2019-04-07T01:55:49.902Z,32.20
2019-04-07T01:58:39.209Z,31.23
2019-04-07T02:01:18.495Z,32.63
2019-04-07T02:04:17.183Z,31.27
2019-04-07T02:07:05.782Z,35.10
2019-04-07T02:10:07.079Z,34.67
2019-04-07T02:12:58.973Z,36.70
2019-04-07T02:15:35.909Z,32.60
2019-04-07T02:18:28.007Z,35.27
2019-04-07T02:21:07.275Z,33.97
2019-04-07T02:23:45.969Z,31.70
2019-04-07T02:26:22.622Z,32.13
2019-04-07T02:29:10.562Z,31.40
2019-04-07T02:31:52.191Z,32.63
2019-04-07T02:34:31.639Z,32.43
2019-04-07T02:37:21.018Z,32.23
2019-04-07T02:40:13.781Z,32.43
2019-04-07T02:43:01.867Z,30.50
2019-04-07T02:45:57.882Z,34.20
2019-04-07T02:48:54.394Z,33.10
2019-04-07T02:51:43.448Z,32.67
2019-04-07T02:54:22.786Z,31.33
2019-04-07T02:57:02.407Z,33.23
2019-04-07T02:59:57.937Z,33.93
2019-04-07T03:02:49.962Z,30.40
2019-04-07T03:05:30.206Z,32.00
2019-04-07T03:08:06.543Z,33.97
2019-04-07T03:10:56.911Z,32.23
2019-04-07T03:13:46.474Z,32.10
2019-04-07T03:16:42.001Z,33.97
2019-04-07T03:19:34.261Z,31.07
2019-04-07T03:22:11.021Z,31.93
2019-04-07T03:25:05.553Z,33.37
2019-04-07T03:27:55.453Z,30.53
2019-04-07T03:30:40.986Z,33.07
2019-04-07T03:33:21.616Z,32.03
2019-04-07T03:36:00.572Z,32.00
2019-04-07T03:38:46.774Z,30.53
2019-04-07T03:41:24.518Z,30.83
2019-04-07T03:44:22.900Z,33.20
2019-04-07T03:47:10.673Z,31.53
2019-04-07T03:49:59.694Z,36.57
2019-04-07T03:52:48.851Z,32.03
2019-04-07T03:55:44.086Z,31.37
2019-04-07T04:01:45.980Z,33.70
2019-04-07T04:04:36.213Z,34.00
2019-04-07T04:07:27.590Z,36.43
2019-04-07T04:10:09.809Z,35.07
2019-04-07T04:13:05.339Z,35.60
2019-04-07T04:16:01.054Z,32.90
2019-04-07T04:18:31.395Z,36.27
2019-04-07T04:21:02.112Z,36.17
2019-04-07T04:23:33.475Z,31.40
2019-04-07T04:26:04.419Z,34.40
2019-04-07T04:28:34.909Z,33.90
2019-04-07T04:31:05.382Z,32.73
2019-04-07T04:33:36.074Z,32.30
2019-04-07T04:36:08.027Z,32.67
2019-04-07T04:38:38.947Z,34.70
2019-04-07T04:41:10.077Z,31.37
2019-04-07T04:43:42.130Z,34.73
2019-04-07T04:46:13.491Z,32.23
2019-04-07T04:48:44.042Z,32.43
2019-04-07T04:51:14.492Z,35.67
2019-04-07T04:53:45.687Z,32.50
2019-04-07T04:56:16.811Z,33.10
2019-04-07T04:58:47.826Z,35.50
2019-04-07T05:01:18.716Z,33.83
2019-04-07T05:03:49.420Z,33.83
2019-04-07T05:06:20.024Z,31.50
2019-04-07T05:08:51.208Z,32.47
2019-04-07T05:11:21.620Z,34.13
2019-04-07T05:13:52.869Z,31.87
2019-04-07T05:16:24.060Z,32.63
2019-04-07T05:18:54.881Z,34.00
2019-04-07T05:21:26.160Z,33.00
2019-04-07T05:23:56.556Z,31.70
2019-04-07T05:26:27.240Z,32.20
2019-04-07T05:28:58.248Z,32.57
2019-04-07T05:31:29.223Z,32.43
2019-04-07T05:34:00.313Z,30.33
2019-04-07T05:36:31.365Z,33.47
2019-04-07T05:39:02.099Z,32.63
2019-04-07T05:41:32.813Z,34.20
2019-04-07T05:44:03.509Z,35.03
2019-04-07T05:46:38.651Z,35.97
2019-04-07T05:49:06.648Z,33.93
2019-04-07T05:51:37.067Z,33.77
2019-04-07T05:54:08.062Z,36.67
2019-04-07T05:56:39.283Z,32.93
2019-04-07T05:59:12.149Z,36.03
2019-04-07T06:01:41.799Z,37.77
2019-04-07T06:04:16.845Z,35.70
2019-04-07T06:06:45.314Z,35.53
2019-04-07T06:09:18.928Z,35.70
2019-04-07T06:11:48.776Z,37.30
2019-04-07T06:14:19.342Z,37.90
2019-04-07T06:16:53.577Z,35.60
2019-04-07T06:19:21.795Z,36.60
2019-04-07T06:21:53.148Z,36.67
2019-04-07T06:24:23.486Z,36.53
2019-04-07T06:26:54.373Z,35.57
2019-04-07T06:29:26.434Z,36.60
2019-04-07T06:31:57.755Z,35.50
2019-04-07T06:34:29.016Z,36.43
2019-04-07T06:36:59.574Z,35.10
2019-04-07T06:39:32.222Z,34.83
2019-04-07T06:42:03.574Z,34.53
2019-04-07T06:44:34.460Z,35.07
2019-04-07T06:47:31.338Z,35.67
2019-04-07T06:50:30.231Z,35.63
2019-04-07T06:53:10.596Z,32.83
2019-04-07T06:56:14.319Z,33.50
2019-04-07T06:59:02.575Z,33.73
2019-04-07T07:01:58.138Z,32.73
2019-04-07T07:04:52.411Z,30.80
2019-04-07T07:07:47.933Z,31.63
2019-04-07T07:10:35.635Z,31.07
2019-04-07T07:13:30.704Z,29.60
2019-04-07T07:16:17.327Z,28.73
2019-04-07T07:19:27.432Z,28.73
2019-04-07T07:22:16.550Z,28.43
2019-04-07T07:24:47.692Z,28.30
2019-04-07T07:27:18.749Z,28.30
2019-04-07T07:29:52.552Z,30.03
2019-04-07T07:32:21.585Z,28.83
2019-04-07T07:34:52.783Z,28.37
2019-04-07T07:37:25.393Z,27.57
2019-04-07T07:39:55.461Z,27.43
2019-04-07T07:42:26.753Z,27.87
2019-04-07T07:44:58.420Z,27.53
2019-04-07T07:47:29.632Z,26.50
2019-04-07T07:50:00.102Z,26.33
2019-04-07T07:52:31.846Z,26.13
2019-04-07T07:55:03.041Z,26.07
2019-04-07T07:57:35.470Z,24.97
2019-04-07T08:00:07.217Z,23.47
2019-04-07T08:02:38.964Z,23.87
2019-04-07T08:05:10.387Z,22.43
2019-04-07T08:07:45.741Z,22.50
2019-04-07T08:10:14.724Z,22.47
2019-04-07T08:12:45.731Z,22.50
2019-04-07T08:15:17.177Z,22.60
2019-04-07T08:17:47.597Z,21.17
2019-04-07T08:20:19.605Z,21.67
2019-04-07T08:22:50.435Z,21.10
2019-04-07T08:25:24.428Z,20.87
2019-04-07T08:27:53.141Z,20.17
2019-04-07T08:30:23.812Z,19.97
2019-04-07T08:32:57.114Z,19.13
2019-04-07T08:35:26.419Z,19.70
2019-04-07T08:37:56.848Z,18.70
2019-04-07T08:40:28.554Z,20.07
2019-04-07T08:43:00.478Z,18.83
2019-04-07T08:45:32.769Z,18.37
2019-04-07T08:48:04.078Z,17.97
2019-04-07T08:50:35.104Z,17.83
2019-04-07T08:53:05.748Z,17.93
2019-04-07T08:55:36.467Z,18.37
2019-04-07T08:58:06.887Z,17.40
2019-04-07T09:00:41.591Z,17.60
2019-04-07T09:03:14.757Z,17.40
2019-04-07T09:05:44.480Z,17.20
2019-04-07T09:08:15.018Z,17.47
2019-04-07T09:10:51.025Z,17.10
2019-04-07T09:13:22.486Z,17.50
2019-04-07T09:16:21.161Z,16.50
2019-04-07T09:19:10.292Z,18.20
2019-04-07T09:22:12.789Z,18.47
2019-04-07T09:25:00.762Z,17.63
2019-04-07T09:27:50.329Z,17.63
2019-04-07T09:30:47.161Z,17.70
2019-04-07T09:33:39.286Z,16.93
2019-04-07T09:36:32.354Z,17.13
2019-04-07T09:39:11.144Z,17.00
2019-04-07T09:41:47.530Z,16.90
2019-04-07T09:44:43.839Z,16.40
2019-04-07T09:47:39.124Z,16.53
2019-04-07T09:50:34.994Z,17.60
2019-04-07T09:53:33.798Z,18.27
2019-04-07T09:56:19.637Z,18.20
2019-04-07T09:59:27.356Z,17.63
2019-04-07T10:02:14.695Z,16.80
2019-04-07T10:05:07.194Z,17.83
2019-04-07T10:07:55.061Z,17.50
2019-04-07T10:11:00.605Z,16.87
2019-04-07T10:13:52.075Z,16.20
2019-04-07T10:16:39.385Z,17.07
2019-04-07T10:19:37.409Z,17.03
2019-04-07T10:22:26.635Z,16.40
2019-04-07T10:25:21.106Z,16.70
2019-04-07T10:28:11.605Z,17.00
2019-04-07T10:30:59.791Z,17.63
2019-04-07T10:33:58.389Z,16.93
2019-04-07T10:37:04.820Z,17.07
2019-04-07T10:39:41.587Z,18.00
2019-04-07T10:42:29.835Z,16.97
2019-04-07T10:45:07.318Z,17.60
2019-04-07T10:47:56.844Z,18.47
2019-04-07T10:50:49.335Z,16.87
2019-04-07T10:53:32.252Z,18.83
2019-04-07T10:56:26.587Z,17.37
2019-04-07T10:59:22.105Z,18.33
2019-04-07T11:02:10.273Z,18.67
2019-04-07T11:04:49.632Z,19.00
2019-04-07T11:07:39.339Z,20.03
2019-04-07T11:10:32.900Z,18.97
2019-04-07T11:13:18.497Z,18.27
2019-04-07T11:16:03.776Z,21.33
2019-04-07T11:19:05.347Z,17.90
2019-04-07T11:21:54.657Z,17.47
2019-04-07T11:24:59.787Z,18.73
2019-04-07T11:27:49.145Z,19.17
2019-04-07T11:30:32.210Z,17.73
2019-04-07T11:33:31.368Z,18.73
2019-04-07T11:36:24.473Z,18.27
2019-04-07T11:39:19.982Z,17.37
2019-04-07T11:41:59.584Z,16.87
2019-04-07T11:44:49.665Z,17.73
2019-04-07T11:47:28.647Z,18.00
2019-04-07T11:50:10.481Z,18.40
2019-04-07T11:52:53.085Z,16.60
2019-04-07T11:55:44.213Z,15.83
2019-04-07T11:58:30.463Z,16.43
2019-04-07T12:01:14.488Z,15.57
2019-04-07T12:03:54.997Z,16.33
2019-04-07T12:06:54.638Z,16.60
2019-04-07T12:09:37.026Z,16.07
2019-04-07T12:12:35.674Z,15.77
2019-04-07T12:15:28.653Z,16.67
2019-04-07T12:18:18.779Z,15.93
2019-04-07T12:21:48.055Z,15.57
2019-04-07T12:24:50.194Z,15.00
2019-04-07T12:27:43.085Z,16.17
2019-04-07T12:30:31.648Z,15.33
2019-04-07T12:33:12.085Z,15.20
2019-04-07T12:35:53.471Z,15.23
2019-04-07T12:38:59.994Z,15.50
2019-04-07T12:41:42.571Z,15.53
2019-04-07T12:44:19.167Z,15.53
2019-04-07T12:47:11.401Z,14.80
2019-04-07T12:49:56.194Z,14.23
2019-04-07T12:52:35.498Z,14.57
2019-04-07T12:55:29.390Z,15.93
2019-04-07T12:58:21.413Z,16.30
2019-04-07T13:01:14.033Z,16.07
2019-04-07T13:03:57.482Z,15.13
2019-04-07T13:06:37.608Z,15.10
2019-04-07T13:09:34.996Z,14.40
2019-04-07T13:12:20.437Z,14.40
2019-04-07T13:15:15.876Z,14.63
2019-04-07T13:18:06.459Z,14.87
2019-04-07T13:20:55.097Z,14.50
2019-04-07T13:23:45.009Z,15.13
2019-04-07T13:26:46.223Z,13.77
2019-04-07T13:29:29.131Z,13.67
2019-04-07T13:32:19.209Z,13.40
2019-04-07T13:35:08.614Z,11.67
2019-04-07T13:38:01.283Z,13.73
2019-04-07T13:40:54.152Z,12.83
2019-04-07T13:43:42.238Z,13.97
2019-04-07T13:46:28.508Z,13.27
2019-04-07T13:49:04.669Z,14.07
2019-04-07T13:51:46.800Z,14.70
2019-04-07T13:54:40.410Z,14.27
2019-04-07T13:57:29.485Z,13.67
2019-04-07T14:00:13.455Z,12.70
2019-04-07T14:02:57.082Z,11.77
2019-04-07T14:05:46.326Z,13.13
2019-04-07T14:08:57.199Z,12.47
2019-04-07T14:11:35.036Z,12.63
2019-04-07T14:14:33.114Z,13.00
2019-04-07T14:17:33.105Z,13.70
2019-04-07T14:20:42.411Z,12.67
2019-04-07T14:23:44.672Z,11.13
2019-04-07T14:26:43.463Z,12.10
2019-04-07T14:29:39.465Z,12.80
2019-04-07T14:32:34.627Z,11.80
2019-04-07T14:35:27.359Z,11.33
2019-04-07T14:38:16.459Z,11.47
2019-04-07T14:41:09.669Z,12.33
2019-04-07T14:44:11.091Z,12.20
2019-04-07T14:46:51.234Z,14.03
2019-04-07T14:49:31.722Z,12.30
2019-04-07T14:52:21.134Z,13.30
2019-04-07T14:55:00.286Z,11.67
2019-04-07T14:57:49.134Z,10.77
2019-04-07T15:00:51.243Z,11.67
2019-04-07T15:03:21.595Z,10.33
2019-04-07T15:05:55.140Z,10.47
2019-04-07T15:08:48.687Z,11.30
2019-04-07T15:12:14.264Z,10.73
2019-04-07T15:14:34.830Z,9.47
2019-04-07T15:17:05.824Z,10.50
2019-04-07T15:19:36.267Z,10.73
2019-04-07T15:22:07.034Z,10.67
2019-04-07T15:24:39.489Z,10.30
2019-04-07T15:27:11.258Z,9.90
2019-04-07T15:29:44.666Z,10.03
2019-04-07T15:32:13.760Z,9.83
2019-04-07T15:34:44.500Z,9.83
2019-04-07T15:37:15.416Z,9.00
2019-04-07T15:39:45.921Z,10.00
2019-04-07T15:42:31.464Z,10.13
2019-04-07T15:44:50.859Z,9.70
2019-04-07T15:47:22.260Z,10.30
2019-04-07T15:49:52.944Z,9.83
2019-04-07T15:52:23.290Z,9.90
2019-04-07T15:54:55.116Z,10.27
2019-04-07T15:57:26.115Z,10.30
2019-04-07T16:00:00.077Z,9.87
2019-04-07T16:02:29.007Z,9.70
2019-04-07T16:05:03.310Z,9.40
2019-04-07T16:07:32.849Z,9.43
2019-04-07T16:10:03.887Z,9.77
2019-04-07T16:12:43.534Z,9.70
2019-04-07T16:15:07.879Z,9.73
2019-04-07T16:17:38.426Z,10.67
2019-04-07T16:20:21.439Z,10.90
2019-04-07T16:22:45.783Z,9.10
2019-04-07T16:25:15.714Z,9.93
2019-04-07T16:27:47.486Z,9.60
2019-04-07T16:30:19.477Z,9.43
2019-04-07T16:32:50.733Z,10.53
2019-04-07T16:35:21.129Z,10.30
2019-04-07T16:37:52.087Z,10.27
2019-04-07T16:40:23.667Z,9.17
2019-04-07T16:43:07.715Z,9.00
2019-04-07T16:45:28.277Z,8.87
2019-04-07T16:48:00.053Z,9.50
2019-04-07T16:50:31.554Z,8.87
2019-04-07T16:53:03.570Z,9.47
2019-04-07T16:55:40.144Z,8.63
2019-04-07T16:58:14.289Z,7.97
2019-04-07T17:00:45.385Z,8.77
2019-04-07T17:03:16.148Z,8.20
2019-04-07T17:05:46.743Z,8.40
2019-04-07T17:08:19.635Z,8.37
2019-04-07T17:10:50.631Z,8.87
2019-04-07T17:13:31.327Z,9.00
2019-04-07T17:15:55.284Z,8.97
2019-04-07T17:18:41.733Z,8.67
2019-04-07T17:21:15.783Z,8.93
2019-04-07T17:23:47.617Z,9.27
2019-04-07T17:26:18.300Z,8.97
2019-04-07T17:29:08.940Z,10.30
2019-04-07T17:31:40.082Z,10.40
2019-04-07T17:34:14.143Z,9.77
2019-04-07T17:36:48.403Z,10.10
2019-04-07T17:39:40.484Z,10.23
2019-04-07T17:42:15.660Z,9.70
2019-04-07T17:45:20.418Z,10.87
2019-04-07T17:48:07.552Z,10.97
2019-04-07T17:50:55.291Z,11.00
2019-04-07T17:53:48.439Z,11.43
2019-04-07T17:56:40.705Z,11.13
2019-04-07T17:59:33.441Z,10.43
2019-04-07T18:02:12.113Z,10.53
2019-04-07T18:05:10.691Z,9.67
2019-04-07T18:07:49.859Z,10.80
2019-04-07T18:10:32.458Z,11.07
2019-04-07T18:13:39.514Z,10.37
2019-04-07T18:16:15.058Z,10.80
2019-04-07T18:19:16.873Z,11.33
2019-04-07T18:22:06.212Z,10.50
2019-04-07T18:24:49.384Z,10.73
2019-04-07T18:27:48.188Z,10.53
2019-04-07T18:30:35.694Z,11.00
2019-04-07T18:33:28.848Z,11.50
2019-04-07T18:36:19.183Z,10.33
2019-04-07T18:39:07.614Z,10.70
2019-04-07T18:41:57.227Z,10.50
2019-04-07T18:44:40.392Z,11.43
2019-04-07T18:47:31.450Z,11.77
2019-04-07T18:50:37.818Z,11.77
2019-04-07T18:53:30.747Z,11.73
2019-04-07T18:56:14.085Z,11.43
2019-04-07T18:59:24.763Z,11.80
2019-04-07T19:02:13.823Z,11.63
2019-04-07T19:05:14.012Z,12.53
2019-04-07T19:08:03.971Z,11.57
2019-04-07T19:10:48.924Z,12.00
2019-04-07T19:14:04.590Z,12.60
2019-04-07T19:16:50.761Z,11.73
2019-04-07T19:19:49.239Z,12.33
2019-04-07T19:22:30.274Z,12.67
2019-04-07T19:25:29.391Z,12.23
2019-04-07T19:28:21.947Z,12.07
2019-04-07T19:31:09.229Z,12.50
2019-04-07T19:34:03.761Z,11.97
2019-04-07T19:36:47.197Z,11.70
2019-04-07T19:39:36.546Z,12.80
2019-04-07T19:42:34.915Z,13.20
2019-04-07T19:45:25.594Z,13.40
2019-04-07T19:48:15.284Z,11.87
2019-04-07T19:51:03.693Z,12.10
2019-04-07T19:54:05.354Z,12.87
2019-04-07T19:56:46.316Z,12.03
2019-04-07T19:59:31.755Z,12.80
2019-04-07T20:02:20.244Z,14.17
2019-04-07T20:04:57.087Z,13.83
2019-04-07T20:07:46.423Z,12.30
2019-04-07T20:10:49.885Z,12.70
2019-04-07T20:13:40.461Z,14.47
2019-04-07T20:16:26.531Z,14.53
2019-04-07T20:19:09.734Z,14.07
2019-04-07T20:22:04.831Z,13.83
2019-04-07T20:24:50.288Z,14.60
2019-04-07T20:27:38.084Z,14.20
2019-04-07T20:30:30.850Z,12.87
2019-04-07T20:33:18.423Z,14.97
2019-04-07T20:36:27.694Z,13.93
2019-04-07T20:39:36.576Z,13.37
2019-04-07T20:42:15.948Z,13.73
2019-04-07T20:45:04.313Z,13.63
2019-04-07T20:47:56.629Z,13.07
2019-04-07T20:50:45.450Z,14.70
2019-04-07T20:53:24.129Z,14.03
2019-04-07T20:56:13.161Z,14.93
2019-04-07T20:59:07.932Z,16.37
2019-04-07T21:02:04.157Z,16.23
2019-04-07T21:04:43.633Z,16.33
2019-04-07T21:07:29.775Z,16.37
2019-04-07T21:10:21.843Z,16.53
2019-04-07T21:13:02.319Z,15.33
2019-04-07T21:15:50.458Z,15.57
2019-04-07T21:18:40.586Z,15.43
2019-04-07T21:21:31.953Z,15.83
2019-04-07T21:24:33.547Z,15.87
2019-04-07T21:27:10.281Z,14.00
2019-04-07T21:30:00.304Z,14.33
2019-04-07T21:32:38.808Z,13.23
2019-04-07T21:35:36.656Z,14.80
2019-04-07T21:38:25.805Z,14.13
2019-04-07T21:41:22.319Z,15.10
2019-04-07T21:44:09.160Z,14.97
2019-04-07T21:47:00.049Z,15.07
2019-04-07T21:49:52.206Z,15.83
2019-04-07T21:52:41.937Z,16.87
2019-04-07T21:55:25.377Z,15.97
2019-04-07T21:58:09.033Z,16.33
2019-04-07T22:01:17.647Z,15.17
2019-04-07T22:04:39.556Z,15.87
2019-04-07T22:07:31.580Z,15.37
2019-04-07T22:10:03.174Z,16.03
2019-04-07T22:12:38.027Z,14.40
2019-04-07T22:15:13.469Z,14.00
2019-04-07T22:17:42.011Z,14.80
2019-04-07T22:20:17.707Z,13.83
2019-04-07T22:22:46.948Z,13.77
2019-04-07T22:25:36.139Z,15.23
2019-04-07T22:28:07.592Z,14.77
2019-04-07T22:30:41.248Z,14.97
2019-04-07T22:33:11.203Z,14.43
2019-04-07T22:35:44.012Z,14.93
2019-04-07T22:38:14.989Z,14.77
2019-04-07T22:40:45.817Z,14.83
2019-04-07T22:43:18.518Z,15.00
2019-04-07T22:45:59.034Z,14.13
2019-04-07T22:48:25.266Z,15.67
2019-04-07T22:50:53.882Z,15.80
2019-04-07T22:53:27.064Z,15.63
2019-04-07T22:55:56.906Z,16.27
2019-04-07T22:58:27.818Z,16.23
2019-04-07T23:00:58.584Z,16.43
2019-04-07T23:03:29.246Z,15.83
2019-04-07T23:05:59.750Z,15.23
2019-04-07T23:08:30.124Z,15.40
2019-04-07T23:11:00.942Z,14.83
2019-04-07T23:13:32.139Z,15.20
2019-04-07T23:16:10.801Z,14.37
2019-04-07T23:18:35.878Z,13.30
2019-04-07T23:21:07.899Z,14.40
2019-04-07T23:23:38.674Z,14.90
2019-04-07T23:26:28.149Z,15.43
2019-04-07T23:28:58.805Z,15.80
2019-04-07T23:31:32.009Z,15.33
2019-04-07T23:34:02.859Z,14.83
2019-04-07T23:36:34.048Z,14.63
2019-04-07T23:39:06.540Z,17.17
2019-04-07T23:41:37.302Z,16.83
2019-04-07T23:44:07.696Z,16.80
2019-04-07T23:46:39.274Z,15.40
2019-04-07T23:49:10.097Z,16.20
2019-04-07T23:51:41.415Z,16.80
2019-04-07T23:54:14.386Z,18.00
2019-04-07T23:56:45.428Z,16.33
2019-04-07T23:59:16.927Z,15.60
